Time;durP1;ratioP1;P1;durP2;ratioP2;P2;SDS_P1;SDS_P2;PMS_P1;PMS_P2;Temp;Humidity;BMP_temperature;BMP_pressure;BME280_temperature;BME280_humidity;BME280_pressure;Samples;Min_cycle;Max_cycle;Signal;HPM_P1;HPM_P2
2022/01/09 00:04:04;;;;;;;1.85;1.65;;;;;;;3.79;100.00;98830.97;10393884;28;20490;-63
2022/01/09 00:09:28;;;;;;;2.35;1.77;;;;;;;3.76;100.00;98835.53;10405636;28;20502;-64
2022/01/09 00:14:51;;;;;;;1.50;1.40;;;;;;;3.80;100.00;98831.78;10410624;28;20049;-64
2022/01/09 00:20:13;;;;;;;1.60;1.50;;;;;;;3.77;100.00;98826.88;10402495;28;20129;-64
2022/01/09 00:25:34;;;;;;;3.53;1.80;;;;;;;3.81;100.00;98823.13;10372507;28;20061;-64
2022/01/09 00:30:56;;;;;;;2.97;1.70;;;;;;;3.79;100.00;98817.25;10388320;28;20053;-64
2022/01/09 00:36:18;;;;;;;2.00;1.63;;;;;;;3.82;100.00;98809.31;10371319;28;20050;-63
2022/01/09 00:41:39;;;;;;;1.90;1.70;;;;;;;3.80;100.00;98795.72;10371881;28;20064;-64
2022/01/09 00:47:01;;;;;;;3.35;1.70;;;;;;;3.79;100.00;98789.75;10377429;28;20073;-63
2022/01/09 00:52:23;;;;;;;3.20;1.70;;;;;;;3.87;100.00;98781.50;10411750;28;20054;-64
2022/01/09 00:57:47;;;;;;;2.95;2.00;;;;;;;3.81;100.00;98781.91;10404567;28;20069;-64
2022/01/09 01:03:09;;;;;;;2.67;1.90;;;;;;;3.84;100.00;98784.28;10411314;28;20053;-65
2022/01/09 01:08:31;;;;;;;3.10;2.10;;;;;;;3.84;100.00;98779.13;10411166;28;20367;-65
2022/01/09 01:13:53;;;;;;;3.92;2.50;;;;;;;3.79;100.00;98788.91;10397748;28;20053;-64
2022/01/09 01:19:18;;;;;;;6.65;2.45;;;;;;;3.78;100.00;98775.22;10402668;28;20052;-64
2022/01/09 01:24:40;;;;;;;2.50;2.30;;;;;;;3.78;100.00;98782.13;10410849;28;20883;-64
2022/01/09 01:30:07;;;;;;;3.15;2.80;;;;;;;3.78;100.00;98772.66;10395757;28;20060;-64
2022/01/09 01:35:29;;;;;;;2.83;2.63;;;;;;;3.80;100.00;98781.09;10407483;28;20473;-63
2022/01/09 01:40:51;;;;;;;2.70;2.50;;;;;;;3.82;100.00;98779.25;10420004;28;20046;-65
2022/01/09 01:46:12;;;;;;;3.45;2.47;;;;;;;3.76;100.00;98784.00;10403842;28;20050;-66
2022/01/09 01:51:34;;;;;;;3.10;2.80;;;;;;;3.82;100.00;98788.72;10410315;28;20049;-64
2022/01/09 01:56:56;;;;;;;2.92;2.65;;;;;;;3.81;100.00;98779.31;10392346;28;20045;-64
2022/01/09 02:02:17;;;;;;;2.95;2.70;;;;;;;3.79;100.00;98773.44;10423855;28;20416;-64
2022/01/09 02:07:41;;;;;;;3.45;2.67;;;;;;;3.83;100.00;98774.91;10399906;28;20042;-63
2022/01/09 02:13:04;;;;;;;3.22;2.63;;;;;;;3.68;100.00;98768.22;10405120;28;20394;-64
2022/01/09 02:18:26;;;;;;;4.53;2.85;;;;;;;3.83;100.00;98774.91;10415698;28;20061;-64
2022/01/09 02:23:49;;;;;;;3.92;3.10;;;;;;;3.74;100.00;98770.41;10417560;28;20060;-64
2022/01/09 02:29:10;;;;;;;2.97;2.55;;;;;;;3.64;100.00;98774.53;10412656;28;20049;-63
2022/01/09 02:34:33;;;;;;;3.47;3.17;;;;;;;3.61;100.00;98769.59;10417867;28;20049;-64
2022/01/09 02:39:55;;;;;;;3.25;2.95;;;;;;;3.53;100.00;98777.03;10422036;28;20324;-63
2022/01/09 02:45:22;;;;;;;3.17;2.88;;;;;;;3.46;100.00;98780.97;10435314;28;20063;-62
2022/01/09 02:50:56;;;;;;;3.60;3.08;;;;;;;3.48;100.00;98773.13;10422255;28;20045;-64
2022/01/09 02:56:18;;;;;;;4.15;3.42;;;;;;;3.45;100.00;98775.91;10415541;28;20045;-63
2022/01/09 03:01:39;;;;;;;3.70;3.40;;;;;;;3.46;100.00;98780.13;10379844;28;20046;-64
2022/01/09 03:07:01;;;;;;;3.63;3.33;;;;;;;3.50;100.00;98777.22;10394530;28;20058;-64
2022/01/09 03:12:23;;;;;;;4.70;3.42;;;;;;;3.46;100.00;98778.38;10375537;28;20058;-64
2022/01/09 03:17:46;;;;;;;4.10;3.80;;;;;;;3.42;100.00;98789.81;10402247;28;20041;-64
2022/01/09 03:23:08;;;;;;;4.38;3.97;;;;;;;3.40;100.00;98786.53;10417457;28;20450;-64
2022/01/09 03:28:29;;;;;;;5.03;3.80;;;;;;;3.47;100.00;98785.19;10405643;28;20045;-64
2022/01/09 03:33:51;;;;;;;4.50;4.10;;;;;;;3.46;100.00;98791.25;10452486;28;20052;-63
2022/01/09 03:39:13;;;;;;;4.40;4.00;;;;;;;3.50;100.00;98786.72;10461766;28;20345;-61
2022/01/09 03:44:34;;;;;;;4.32;3.92;;;;;;;3.53;100.00;98787.31;10416676;28;20045;-64
2022/01/09 03:49:56;;;;;;;4.30;3.90;;;;;;;3.41;100.00;98783.03;10414646;28;20053;-64
2022/01/09 03:55:21;;;;;;;4.50;4.10;;;;;;;3.47;100.00;98787.75;10413946;28;20053;-64
2022/01/09 04:00:42;;;;;;;4.25;3.90;;;;;;;3.42;100.00;98794.16;10412671;28;20046;-64
2022/01/09 04:06:04;;;;;;;4.47;4.07;;;;;;;3.46;100.00;98801.56;10409891;28;20053;-64
2022/01/09 04:11:28;;;;;;;4.07;3.78;;;;;;;3.46;100.00;98806.72;10372553;28;20142;-63
2022/01/09 04:16:50;;;;;;;4.25;3.85;;;;;;;3.32;100.00;98809.41;10371806;28;20053;-63
2022/01/09 04:22:11;;;;;;;5.57;4.40;;;;;;;3.31;100.00;98818.06;10372002;28;20049;-64
2022/01/09 04:27:33;;;;;;;4.53;4.13;;;;;;;3.28;100.00;98825.97;10381581;28;20058;-64
2022/01/09 04:32:55;;;;;;;3.95;3.58;;;;;;;3.25;100.00;98827.94;10371761;28;20491;-64
2022/01/09 04:38:17;;;;;;;3.50;3.20;;;;;;;3.14;100.00;98831.22;10376074;28;20041;-64
2022/01/09 04:43:41;;;;;;;3.50;3.20;;;;;;;3.02;100.00;98826.88;10412048;28;20057;-63
2022/01/09 04:49:03;;;;;;;3.72;3.42;;;;;;;3.02;100.00;98832.03;10390959;28;20058;-63
2022/01/09 04:54:25;;;;;;;4.35;3.50;;;;;;;3.03;100.00;98838.84;10371396;28;20054;-64
2022/01/09 04:59:46;;;;;;;3.40;3.10;;;;;;;3.09;100.00;98838.41;10389443;28;20493;-63
2022/01/09 05:05:09;;;;;;;4.18;3.03;;;;;;;2.95;100.00;98856.50;10379035;28;20049;-64
2022/01/09 05:10:31;;;;;;;3.42;3.13;;;;;;;3.00;100.00;98861.34;10411288;28;20051;-64
2022/01/09 05:15:54;;;;;;;3.30;3.00;;;;;;;2.94;100.00;98870.28;10409711;28;20061;-64
2022/01/09 05:21:17;;;;;;;3.50;3.20;;;;;;;2.96;100.00;98863.31;10376541;28;20410;-63
2022/01/09 05:26:38;;;;;;;3.53;3.22;;;;;;;2.82;100.00;98860.00;10370084;28;20046;-63
2022/01/09 05:32:00;;;;;;;3.85;3.55;;;;;;;3.04;100.00;98875.66;10369655;28;20057;-64
2022/01/09 05:37:22;;;;;;;3.60;3.30;;;;;;;3.02;100.00;98878.34;10369115;28;20053;-63
2022/01/09 05:42:44;;;;;;;3.90;3.60;;;;;;;3.04;100.00;98879.09;10368610;28;20076;-63
2022/01/09 05:48:06;;;;;;;4.10;3.78;;;;;;;3.01;100.00;98887.00;10387405;28;20057;-64
2022/01/09 05:53:27;;;;;;;3.83;3.53;;;;;;;2.82;100.00;98895.16;10369031;28;20058;-64
2022/01/09 05:58:49;;;;;;;4.00;3.70;;;;;;;3.01;100.00;98897.28;10373996;28;20053;-64
2022/01/09 06:04:11;;;;;;;3.75;3.45;;;;;;;2.92;100.00;98908.16;10370280;28;20054;-64
2022/01/09 06:09:33;;;;;;;3.72;3.42;;;;;;;2.91;100.00;98911.66;10409310;28;20045;-64
2022/01/09 06:14:54;;;;;;;3.58;3.28;;;;;;;2.91;100.00;98914.22;10410076;28;20057;-64
2022/01/09 06:20:16;;;;;;;4.22;3.83;;;;;;;2.93;100.00;98925.25;10383203;28;20422;-64
2022/01/09 06:25:38;;;;;;;4.07;3.67;;;;;;;3.04;100.00;98930.56;10368547;28;20065;-63
2022/01/09 06:30:59;;;;;;;6.30;3.88;;;;;;;3.10;100.00;98922.41;10403209;28;20060;-63
2022/01/09 06:36:21;;;;;;;6.30;4.40;;;;;;;3.13;100.00;98942.81;10415549;28;20052;-64
2022/01/09 06:41:43;;;;;;;5.63;4.20;;;;;;;3.03;100.00;98943.50;10403563;28;20042;-63
2022/01/09 06:47:05;;;;;;;4.40;4.00;;;;;;;3.15;100.00;98960.72;10403066;28;20050;-64
2022/01/09 06:52:26;;;;;;;6.68;4.47;;;;;;;3.25;100.00;98972.91;10369596;28;20056;-64
2022/01/09 06:57:48;;;;;;;4.55;4.15;;;;;;;3.37;100.00;98982.41;10391604;28;20057;-64
2022/01/09 07:03:10;;;;;;;5.82;4.50;;;;;;;3.47;100.00;98988.63;10375428;28;20387;-64
2022/01/09 07:08:33;;;;;;;10.85;5.65;;;;;;;3.60;100.00;99010.06;10387730;28;20046;-64
2022/01/09 07:13:55;;;;;;;8.57;4.90;;;;;;;3.67;100.00;99016.44;10379137;28;20057;-63
2022/01/09 07:19:17;;;;;;;11.48;5.30;;;;;;;3.83;100.00;99029.97;10414072;28;20050;-64
2022/01/09 07:24:38;;;;;;;11.05;5.38;;;;;;;4.10;100.00;99044.44;10415302;28;20049;-63
2022/01/09 07:30:01;;;;;;;14.18;4.40;;;;;;;4.44;100.00;99043.81;10418585;28;20112;-64
2022/01/09 07:35:24;;;;;;;7.63;2.47;;;;;;;4.76;100.00;99048.41;10415105;28;20042;-64
2022/01/09 07:40:47;;;;;;;7.22;1.88;;;;;;;4.93;100.00;99062.72;10426791;28;20061;-64
2022/01/09 07:46:09;;;;;;;13.32;1.85;;;;;;;5.04;100.00;99068.78;10406584;28;20054;-63
2022/01/09 07:51:31;;;;;;;13.90;1.80;;;;;;;5.16;100.00;99082.59;10381002;28;20137;-63
2022/01/09 07:57:12;;;;;;;10.20;1.58;;;;;;;5.22;100.00;99093.31;10376511;28;20061;-64
2022/01/09 08:02:34;;;;;;;17.73;1.90;;;;;;;5.27;100.00;99106.72;10372653;28;20061;-64
2022/01/09 08:07:56;;;;;;;13.75;1.52;;;;;;;5.26;100.00;99123.16;10383809;28;20069;-64
2022/01/09 08:13:18;;;;;;;20.10;1.95;;;;;;;5.25;100.00;99126.66;10372886;28;20053;-64
2022/01/09 08:18:39;;;;;;;9.63;1.40;;;;;;;5.33;100.00;99134.72;10401379;28;20060;-63
2022/01/09 08:24:01;;;;;;;13.18;1.95;;;;;;;5.29;100.00;99146.19;10412600;28;20060;-63
2022/01/09 08:29:23;;;;;;;12.48;2.38;;;;;;;5.33;100.00;99168.28;10395477;28;20137;-64
2022/01/09 08:34:45;;;;;;;14.80;2.00;;;;;;;5.43;100.00;99164.13;10371624;28;20056;-63
2022/01/09 08:40:08;;;;;;;17.92;2.45;;;;;;;5.50;100.00;99165.34;10391514;28;20131;-64
2022/01/09 08:45:29;;;;;;;12.05;1.92;;;;;;;5.52;100.00;99171.25;10411640;28;20056;-64
2022/01/09 08:50:51;;;;;;;13.70;1.90;;;;;;;5.57;100.00;99189.81;10400446;28;20049;-64
2022/01/09 08:56:13;;;;;;;15.73;2.47;;;;;;;5.57;100.00;99200.16;10410463;28;20056;-64
2022/01/09 09:01:35;;;;;;;16.27;2.30;;;;;;;5.58;100.00;99204.38;10391843;28;20045;-64
2022/01/09 09:06:56;;;;;;;13.48;2.15;;;;;;;5.58;100.00;99225.06;10399276;28;20063;-63
2022/01/09 09:12:18;;;;;;;14.15;1.98;;;;;;;5.67;100.00;99227.03;10415984;28;20053;-65
2022/01/09 09:17:40;;;;;;;19.40;2.58;;;;;;;5.75;100.00;99243.63;10413010;28;20056;-65
2022/01/09 09:23:02;;;;;;;21.20;2.85;;;;;;;5.81;100.00;99260.53;10404412;28;20509;-63
2022/01/09 09:28:23;;;;;;;20.52;2.67;;;;;;;5.87;100.00;99273.00;10405612;28;20486;-64
2022/01/09 09:33:45;;;;;;;28.38;3.55;;;;;;;5.84;100.00;99278.38;10396802;28;20049;-64
2022/01/09 09:39:08;;;;;;;23.45;3.72;;;;;;;5.83;100.00;99292.22;10395911;28;20044;-64
2022/01/09 09:44:31;;;;;;;23.38;2.97;;;;;;;5.85;100.00;99306.72;10391517;28;20403;-64
2022/01/09 09:49:52;;;;;;;21.63;3.15;;;;;;;5.85;100.00;99330.00;10391734;28;20053;-63
2022/01/09 09:55:16;;;;;;;23.88;3.28;;;;;;;5.87;100.00;99325.56;10418608;28;20088;-64
2022/01/09 10:00:39;;;;;;;21.75;2.90;;;;;;;5.84;100.00;99341.28;10394426;28;20034;-63
2022/01/09 10:06:01;;;;;;;18.83;3.10;;;;;;;5.83;100.00;99351.69;10408288;28;20414;-64
2022/01/09 10:11:23;;;;;;;21.17;2.90;;;;;;;5.83;100.00;99365.47;10407958;28;20045;-63
2022/01/09 10:17:22;;;;;;;22.23;2.95;;;;;;;5.86;100.00;99370.44;10410077;28;20498;-64
2022/01/09 10:22:46;;;;;;;21.65;3.33;;;;;;;5.92;100.00;99374.34;10392296;28;20049;-63
2022/01/09 10:28:12;;;;;;;23.65;3.22;;;;;;;5.92;100.00;99384.69;10377412;28;20398;-64
2022/01/09 10:33:37;;;;;;;24.45;3.15;;;;;;;5.92;100.00;99397.63;10396066;28;20410;-63
2022/01/09 10:39:13;;;;;;;23.80;3.25;;;;;;;5.90;100.00;99400.31;10397657;28;20042;-63
2022/01/09 10:44:38;;;;;;;13.52;1.85;;;;;;;5.84;100.00;99407.66;10394607;28;20062;-63
2022/01/09 10:49:59;;;;;;;18.20;2.17;;;;;;;5.88;100.00;99415.13;10403771;28;20045;-63
2022/01/09 10:55:30;;;;;;;18.40;2.78;;;;;;;5.87;100.00;99433.31;10382886;28;20417;-64
2022/01/09 11:01:24;;;;;;;7.15;1.60;;;;;;;5.90;100.00;99444.25;10411882;28;20405;-63
2022/01/09 11:06:45;;;;;;;24.75;2.95;;;;;;;5.95;100.00;99446.56;10401919;28;20080;-62
2022/01/09 11:12:08;;;;;;;17.63;2.38;;;;;;;5.95;100.00;99462.06;10378539;28;20524;-63
2022/01/09 11:17:31;;;;;;;21.35;2.97;;;;;;;6.01;100.00;99471.97;10395882;28;20042;-64
2022/01/09 11:22:58;;;;;;;20.95;3.10;;;;;;;6.01;100.00;99487.50;10390350;28;20088;-63
2022/01/09 11:28:25;;;;;;;21.20;3.08;;;;;;;6.01;100.00;99503.03;10388060;28;20050;-63
2022/01/09 11:34:06;;;;;;;19.00;2.53;;;;;;;6.02;100.00;99504.69;10390928;28;20566;-63
2022/01/09 11:39:36;;;;;;;24.08;2.88;;;;;;;6.05;100.00;99514.81;10418607;28;20500;-63
2022/01/09 11:44:57;;;;;;;20.95;2.58;;;;;;;6.04;100.00;99526.09;10413211;28;20053;-63
2022/01/09 11:50:19;;;;;;;12.73;2.35;;;;;;;6.03;100.00;99537.38;10412839;28;20049;-64
2022/01/09 11:55:44;;;;;;;20.00;2.75;;;;;;;5.89;100.00;99548.63;10406875;28;20052;-63
2022/01/09 12:01:06;;;;;;;17.60;2.17;;;;;;;5.80;100.00;99545.84;10413121;28;20056;-63
2022/01/09 12:06:40;;;;;;;19.52;2.65;;;;;;;5.73;100.00;99554.88;10404104;28;20049;-64
2022/01/09 12:12:22;;;;;;;23.48;2.53;;;;;;;5.73;100.00;99572.97;10410900;28;20060;-64
2022/01/09 12:17:44;;;;;;;16.65;2.40;;;;;;;5.82;100.00;99559.50;10411974;28;20056;-63
2022/01/09 12:23:08;;;;;;;21.88;2.90;;;;;;;5.88;100.00;99569.41;10407720;28;20167;-63
2022/01/09 12:28:38;;;;;;;15.70;2.90;;;;;;;5.92;100.00;99570.88;10412293;28;20520;-63
2022/01/09 12:34:00;;;;;;;16.55;2.55;;;;;;;6.06;100.00;99586.31;10408504;28;20697;-65
2022/01/09 12:39:21;;;;;;;20.40;2.72;;;;;;;6.10;100.00;99587.78;10399937;28;20052;-62
2022/01/09 12:44:54;;;;;;;20.08;2.63;;;;;;;6.18;100.00;99595.84;10411159;28;20095;-62
2022/01/09 12:50:16;;;;;;;17.15;2.67;;;;;;;6.22;100.00;99610.25;10407471;28;20053;-63
2022/01/09 12:55:58;;;;;;;22.05;3.08;;;;;;;6.23;100.00;99619.66;10406843;28;20042;-63
2022/01/09 13:01:24;;;;;;;28.65;3.00;;;;;;;6.22;100.00;99618.00;10408163;28;20037;-63
2022/01/09 13:06:49;;;;;;;18.20;2.65;;;;;;;6.24;100.00;99613.56;10409120;28;20057;-63
2022/01/09 13:12:11;;;;;;;21.73;2.77;;;;;;;6.24;100.00;99623.91;10396417;28;20050;-62
2022/01/09 13:17:45;;;;;;;13.38;2.15;;;;;;;6.19;100.00;99641.50;10386392;28;20608;-63
2022/01/09 13:23:09;;;;;;;16.45;2.47;;;;;;;6.19;100.00;99652.66;10398924;28;20041;-61
2022/01/09 13:28:31;;;;;;;15.02;2.10;;;;;;;6.24;100.00;99660.13;10388298;28;20049;-63
2022/01/09 13:33:54;;;;;;;19.02;2.42;;;;;;;6.24;100.00;99670.47;10383537;28;20054;-62
2022/01/09 13:39:21;;;;;;;16.77;2.80;;;;;;;6.23;100.00;99679.19;10395781;28;20482;-62
2022/01/09 13:44:43;;;;;;;16.27;2.80;;;;;;;6.25;100.00;99687.66;10391103;28;20460;-62
2022/01/09 13:50:06;;;;;;;16.75;2.45;;;;;;;6.26;100.00;99694.50;10377589;28;20049;-63
2022/01/09 13:55:30;;;;;;;17.88;2.85;;;;;;;6.28;100.00;99709.00;10386040;28;20053;-62
2022/01/09 14:00:52;;;;;;;13.27;2.70;;;;;;;6.36;100.00;99713.66;10393721;28;20479;-62
2022/01/09 14:06:21;;;;;;;24.30;2.65;;;;;;;6.38;100.00;99719.59;10397631;28;20049;-62
2022/01/09 14:11:43;;;;;;;15.77;2.53;;;;;;;6.29;100.00;99726.19;10378327;28;20061;-62
2022/01/09 14:17:33;;;;;;;16.52;2.45;;;;;;;6.41;100.00;99760.75;10391212;28;20054;-62
2022/01/09 14:23:10;;;;;;;11.98;2.28;;;;;;;6.42;100.00;99754.66;10406704;28;20084;-62
2022/01/09 14:28:32;;;;;;;14.63;2.85;;;;;;;6.46;100.00;99756.97;10405307;28;20042;-62
2022/01/09 14:33:57;;;;;;;12.02;2.28;;;;;;;6.49;100.00;99771.47;10399136;28;20044;-62
2022/01/09 14:39:20;;;;;;;13.98;2.60;;;;;;;6.46;100.00;99779.44;10391657;28;20063;-61
2022/01/09 14:44:42;;;;;;;16.83;2.72;;;;;;;6.43;100.00;99784.78;10396331;28;20046;-61
2022/01/09 14:50:05;;;;;;;10.27;2.22;;;;;;;6.48;100.00;99798.28;10397707;28;20383;-62
2022/01/09 14:55:26;;;;;;;14.23;2.40;;;;;;;6.44;100.00;99805.41;10384583;28;20057;-62
2022/01/09 15:00:49;;;;;;;17.48;2.42;;;;;;;6.43;100.00;99821.03;10394333;28;20430;-61
2022/01/09 15:06:12;;;;;;;16.45;2.22;;;;;;;6.42;100.00;99827.97;10389169;28;20081;-63
2022/01/09 15:11:35;;;;;;;12.18;2.33;;;;;;;6.38;100.00;99841.22;10397101;28;20046;-63
2022/01/09 15:16:56;;;;;;;14.95;2.08;;;;;;;6.36;100.00;99850.81;10404651;28;20053;-63
2022/01/09 15:22:18;;;;;;;15.77;2.47;;;;;;;6.35;100.00;99851.75;10395687;28;20547;-62
2022/01/09 15:27:40;;;;;;;13.15;2.47;;;;;;;6.37;100.00;99868.03;10383717;28;20054;-62
2022/01/09 15:33:03;;;;;;;12.38;2.30;;;;;;;6.22;100.00;99885.31;10407448;28;20053;-61
2022/01/09 15:38:24;;;;;;;14.48;2.15;;;;;;;6.24;100.00;99895.59;10401489;28;20056;-62
2022/01/09 15:43:49;;;;;;;20.55;2.60;;;;;;;6.12;100.00;99904.06;10391514;28;20060;-63
2022/01/09 15:49:10;;;;;;;11.48;2.10;;;;;;;6.10;100.00;99901.59;10389557;28;20528;-63
2022/01/09 15:54:33;;;;;;;6.95;2.00;;;;;;;6.09;100.00;99922.41;10400089;28;20053;-64
2022/01/09 15:59:55;;;;;;;15.52;3.17;;;;;;;5.94;100.00;99931.91;10397079;28;20052;-63
2022/01/09 16:05:18;;;;;;;9.07;2.78;;;;;;;5.89;100.00;99948.63;10421605;28;20401;-63
2022/01/09 16:10:39;;;;;;;13.52;2.72;;;;;;;5.89;100.00;99956.38;10403052;28;20042;-63
2022/01/09 16:16:01;;;;;;;12.50;2.47;;;;;;;5.81;100.00;99962.00;10389588;28;20057;-62
2022/01/09 16:21:23;;;;;;;11.00;3.00;;;;;;;5.87;100.00;99968.56;10378441;28;20049;-62
2022/01/09 16:26:46;;;;;;;10.85;2.20;;;;;;;5.82;100.00;99978.38;10386479;28;20243;-63
2022/01/09 16:32:08;;;;;;;12.57;2.03;;;;;;;5.75;100.00;99992.53;10375351;28;20053;-63
2022/01/09 16:37:30;;;;;;;13.25;2.33;;;;;;;5.74;100.00;99985.69;10385831;28;20126;-62
2022/01/09 16:42:52;;;;;;;17.23;2.38;;;;;;;5.76;100.00;99999.38;10383552;28;20042;-61
2022/01/09 16:48:14;;;;;;;13.30;2.60;;;;;;;5.72;100.00;100010.78;10380780;28;20056;-63
2022/01/09 16:53:41;;;;;;;14.90;2.83;;;;;;;5.64;100.00;100023.34;10393288;28;20441;-63
2022/01/09 16:59:02;;;;;;;15.88;2.55;;;;;;;5.63;100.00;100038.94;10407073;28;20038;-63
2022/01/09 17:04:24;;;;;;;14.63;2.50;;;;;;;5.61;100.00;100036.44;10388059;28;20515;-62
2022/01/09 17:09:45;;;;;;;11.70;2.40;;;;;;;5.64;100.00;100046.59;10380002;28;20054;-63
2022/01/09 17:15:07;;;;;;;9.95;2.35;;;;;;;5.50;100.00;100059.47;10381880;28;20263;-64
2022/01/09 17:20:29;;;;;;;5.55;2.20;;;;;;;5.41;100.00;100075.47;10384910;28;20050;-63
2022/01/09 17:25:53;;;;;;;8.57;2.33;;;;;;;5.40;100.00;100078.97;10381431;28;20053;-62
2022/01/09 17:31:14;;;;;;;9.32;2.17;;;;;;;5.36;100.00;100077.50;10398205;28;20045;-63
2022/01/09 17:36:37;;;;;;;14.25;2.47;;;;;;;5.36;100.00;100090.44;10384720;28;20559;-64
2022/01/09 17:41:58;;;;;;;12.65;2.13;;;;;;;5.32;100.00;100099.25;10406696;28;20406;-63
2022/01/09 17:47:20;;;;;;;10.45;2.05;;;;;;;5.30;100.00;100113.19;10409008;28;20065;-63
2022/01/09 17:52:41;;;;;;;13.80;2.50;;;;;;;5.31;100.00;100120.03;10408909;28;20409;-62
2022/01/09 17:58:07;;;;;;;11.73;2.35;;;;;;;5.23;100.00;100123.03;10397996;28;20054;-63
2022/01/09 18:03:29;;;;;;;7.43;2.00;;;;;;;5.17;100.00;100133.66;10383863;28;20058;-62
2022/01/09 18:08:52;;;;;;;11.02;2.70;;;;;;;5.04;100.00;100143.00;10378999;28;20749;-63
2022/01/09 18:14:14;;;;;;;8.05;2.65;;;;;;;5.10;100.00;100163.31;10375635;28;20045;-62
2022/01/09 18:19:36;;;;;;;8.73;2.30;;;;;;;5.09;100.00;100172.00;10401945;28;20042;-64
2022/01/09 18:24:57;;;;;;;8.98;2.78;;;;;;;5.17;100.00;100185.34;10409091;28;20049;-64
2022/01/09 18:30:19;;;;;;;7.00;2.20;;;;;;;4.85;100.00;100199.09;10405287;28;20042;-64
2022/01/09 18:35:41;;;;;;;9.77;2.25;;;;;;;4.94;100.00;100205.53;10400624;28;20049;-62
2022/01/09 18:41:03;;;;;;;11.18;2.58;;;;;;;4.92;100.00;100215.94;10393982;28;20461;-63
2022/01/09 18:46:24;;;;;;;7.70;1.90;;;;;;;4.93;100.00;100217.63;10379899;28;20060;-63
2022/01/09 18:51:46;;;;;;;11.30;2.47;;;;;;;4.77;100.00;100232.22;10398375;28;20041;-63
2022/01/09 18:57:11;;;;;;;7.20;2.28;;;;;;;4.88;100.00;100237.66;10398683;28;20057;-63
2022/01/09 19:02:35;;;;;;;16.30;2.65;;;;;;;4.95;100.00;100241.59;10408308;28;20403;-63
2022/01/09 19:07:57;;;;;;;16.00;2.90;;;;;;;4.80;100.00;100257.84;10400535;28;20107;-63
2022/01/09 19:13:22;;;;;;;15.15;4.80;;;;;;;4.86;100.00;100272.22;10398215;28;20465;-63
2022/01/09 19:18:44;;;;;;;10.52;2.63;;;;;;;4.88;100.00;100284.13;10394247;28;20053;-63
2022/01/09 19:24:06;;;;;;;16.65;3.08;;;;;;;4.80;100.00;100291.41;10376795;28;20064;-62
2022/01/09 19:29:28;;;;;;;14.55;3.72;;;;;;;4.79;100.00;100307.84;10373212;28;20041;-64
2022/01/09 19:34:50;;;;;;;14.90;3.45;;;;;;;4.80;100.00;100312.06;10372555;28;20076;-63
2022/01/09 19:40:13;;;;;;;11.25;2.85;;;;;;;4.81;100.00;100326.66;10394807;28;20050;-67
2022/01/09 19:45:36;;;;;;;10.90;2.80;;;;;;;4.89;100.00;100332.28;10387026;28;20041;-63
2022/01/09 19:50:57;;;;;;;13.63;3.28;;;;;;;4.79;100.00;100344.00;10389265;28;20042;-63
2022/01/09 19:56:20;;;;;;;11.85;3.35;;;;;;;4.72;100.00;100340.00;10400798;28;20053;-64
2022/01/09 20:01:41;;;;;;;14.60;3.03;;;;;;;4.76;100.00;100351.88;10411524;28;20037;-63
2022/01/09 20:07:03;;;;;;;9.57;2.80;;;;;;;4.75;100.00;100373.44;10382618;28;20061;-63
2022/01/09 20:12:25;;;;;;;11.45;2.95;;;;;;;4.76;100.00;100385.44;10371376;28;20050;-63
2022/01/09 20:17:47;;;;;;;15.43;2.58;;;;;;;4.65;100.00;100401.50;10398058;28;20498;-63
2022/01/09 20:23:09;;;;;;;14.52;2.50;;;;;;;4.62;100.00;100402.47;10381263;28;20045;-63
2022/01/09 20:28:31;;;;;;;13.90;3.17;;;;;;;4.56;100.00;100413.09;10412877;28;20060;-63
2022/01/09 20:33:52;;;;;;;8.23;2.58;;;;;;;4.72;100.00;100428.69;10375795;28;20053;-64
2022/01/09 20:39:14;;;;;;;16.88;2.85;;;;;;;4.54;100.00;100427.81;10384050;28;20104;-63
2022/01/09 20:44:35;;;;;;;11.73;2.60;;;;;;;4.48;100.00;100450.50;10395601;28;20056;-63
2022/01/09 20:49:58;;;;;;;9.25;2.42;;;;;;;4.46;100.00;100457.47;10410183;28;20085;-63
2022/01/09 20:55:20;;;;;;;11.90;2.60;;;;;;;4.51;100.00;100466.66;10409563;28;20053;-63
2022/01/09 21:00:42;;;;;;;9.50;2.08;;;;;;;4.48;100.00;100471.94;10410575;28;20063;-63
2022/01/09 21:06:16;;;;;;;9.57;2.58;;;;;;;4.46;100.00;100491.00;10411054;28;20658;-64
2022/01/09 21:11:38;;;;;;;7.38;2.22;;;;;;;4.50;100.00;100506.28;10394021;28;20419;-63
2022/01/09 21:17:01;;;;;;;12.23;2.60;;;;;;;4.45;100.00;100512.56;10370400;28;20080;-63
2022/01/09 21:22:23;;;;;;;8.45;2.70;;;;;;;4.49;100.00;100514.91;10370036;28;20050;-64
2022/01/09 21:27:45;;;;;;;10.15;2.17;;;;;;;4.34;100.00;100522.50;10388897;28;20155;-63
2022/01/09 21:33:07;;;;;;;11.68;3.03;;;;;;;4.40;100.00;100533.41;10369213;28;20056;-63
2022/01/09 21:38:28;;;;;;;13.02;2.90;;;;;;;4.34;100.00;100546.56;10377119;28;20049;-63
2022/01/09 21:43:50;;;;;;;10.77;2.97;;;;;;;4.34;100.00;100558.63;10409285;28;20506;-63
2022/01/09 21:49:12;;;;;;;13.43;3.47;;;;;;;4.33;100.00;100567.28;10404177;28;20052;-63
2022/01/09 21:54:35;;;;;;;14.38;2.65;;;;;;;4.35;100.00;100578.38;10410678;28;20057;-63
2022/01/09 21:59:56;;;;;;;18.10;3.78;;;;;;;4.27;100.00;100580.44;10390792;28;20513;-63
2022/01/09 22:05:18;;;;;;;12.98;3.10;;;;;;;4.30;100.00;100596.59;10402760;28;20398;-63
2022/01/09 22:10:40;;;;;;;11.55;2.95;;;;;;;4.34;100.00;100612.81;10388080;28;20056;-63
2022/01/09 22:16:02;;;;;;;15.30;2.85;;;;;;;4.31;100.00;100625.84;10391959;28;20052;-63
2022/01/09 22:21:26;;;;;;;24.85;3.72;;;;;;;4.31;100.00;100633.56;10389575;28;20041;-63
2022/01/09 22:26:47;;;;;;;10.98;2.72;;;;;;;4.21;100.00;100647.78;10402885;28;20057;-63
2022/01/09 22:32:09;;;;;;;13.13;2.97;;;;;;;4.22;100.00;100647.69;10398386;28;20597;-63
2022/01/09 22:37:31;;;;;;;16.20;3.28;;;;;;;4.19;100.00;100652.16;10405535;28;20042;-63
2022/01/09 22:42:58;;;;;;;16.63;2.78;;;;;;;4.09;100.00;100669.72;10418346;28;20144;-64
2022/01/09 22:48:19;;;;;;;16.55;2.63;;;;;;;4.09;100.00;100671.47;10391834;28;20076;-64
2022/01/09 22:53:41;;;;;;;14.32;2.67;;;;;;;4.06;100.00;100681.91;10387517;28;20049;-64
2022/01/09 22:59:03;;;;;;;12.55;2.50;;;;;;;4.16;100.00;100690.97;10403466;28;20044;-64
2022/01/09 23:04:26;;;;;;;13.73;2.70;;;;;;;4.07;100.00;100701.66;10393856;28;20056;-64
2022/01/09 23:09:48;;;;;;;16.05;2.97;;;;;;;4.16;100.00;100707.25;10388637;28;20038;-63
2022/01/09 23:15:09;;;;;;;14.50;2.55;;;;;;;4.15;100.00;100720.22;10386038;28;20069;-64
2022/01/09 23:20:32;;;;;;;10.27;2.60;;;;;;;4.22;100.00;100732.00;10388993;28;20050;-64
2022/01/09 23:25:56;;;;;;;14.23;2.30;;;;;;;4.08;100.00;100736.81;10380855;28;20057;-64
2022/01/09 23:31:18;;;;;;;15.32;2.60;;;;;;;4.22;100.00;100742.31;10373452;28;20555;-64
2022/01/09 23:36:57;;;;;;;14.13;3.13;;;;;;;4.14;100.00;100759.81;10390190;28;20174;-64
2022/01/09 23:42:22;;;;;;;10.07;2.40;;;;;;;4.19;100.00;100769.03;10391027;28;20042;-63
2022/01/09 23:48:04;;;;;;;12.70;2.55;;;;;;;4.23;100.00;100774.91;10380554;28;20065;-64
2022/01/09 23:53:26;;;;;;;12.13;2.88;;;;;;;4.27;100.00;100774.75;10392239;28;20052;-62
2022/01/09 23:58:47;;;;;;;18.63;2.90;;;;;;;4.35;100.00;100787.34;10375183;28;20513;-63
